createdAt,value
2018-01-08T00:02:08.370Z,6.40
2018-01-08T00:04:34.950Z,6.40
2018-01-08T00:07:00.790Z,6.40
2018-01-08T00:09:26.658Z,6.30
2018-01-08T00:11:52.536Z,6.30
2018-01-08T00:14:19.106Z,6.30
2018-01-08T00:16:44.978Z,6.30
2018-01-08T00:19:10.813Z,6.20
2018-01-08T00:21:36.654Z,6.30
2018-01-08T00:24:02.583Z,6.30
2018-01-08T00:26:28.434Z,6.30
2018-01-08T00:28:55.030Z,6.50
2018-01-08T00:31:20.861Z,6.50
2018-01-08T00:33:46.687Z,6.40
2018-01-08T00:36:12.512Z,6.40
2018-01-08T00:38:38.338Z,6.30
2018-01-08T00:41:04.187Z,6.30
2018-01-08T00:43:30.021Z,6.30
2018-01-08T00:45:55.870Z,6.40
2018-01-08T00:48:21.723Z,6.30
2018-01-08T00:50:47.562Z,6.40
2018-01-08T00:53:14.184Z,6.40
2018-01-08T00:55:40.026Z,6.40
2018-01-08T00:58:05.858Z,6.40
2018-01-08T01:00:31.692Z,6.40
2018-01-08T01:02:57.543Z,6.50
2018-01-08T01:05:23.417Z,6.40
2018-01-08T01:07:49.245Z,6.40
2018-01-08T01:10:15.098Z,6.40
2018-01-08T01:12:40.942Z,6.30
2018-01-08T01:15:06.778Z,6.40
2018-01-08T01:17:32.882Z,6.40
2018-01-08T01:19:58.714Z,6.30
2018-01-08T01:22:24.569Z,6.30
2018-01-08T01:24:50.401Z,6.40
2018-01-08T01:27:16.242Z,6.30
2018-01-08T01:29:42.075Z,6.30
2018-01-08T01:32:07.918Z,6.30
2018-01-08T01:34:33.750Z,6.30
2018-01-08T01:36:59.591Z,6.30
2018-01-08T01:39:25.456Z,6.40
2018-01-08T01:41:51.298Z,6.40
2018-01-08T01:44:17.125Z,6.40
2018-01-08T01:46:42.963Z,6.30
2018-01-08T01:49:14.898Z,6.30
2018-01-08T01:51:40.733Z,6.30
2018-01-08T01:54:06.565Z,6.30
2018-01-08T01:56:33.154Z,6.30
2018-01-08T01:58:58.994Z,6.30
2018-01-08T02:01:24.848Z,6.40
2018-01-08T02:03:50.955Z,6.40
2018-01-08T02:06:16.791Z,6.40
2018-01-08T02:08:42.623Z,6.30
2018-01-08T02:11:08.466Z,6.30
2018-01-08T02:13:34.302Z,6.30
2018-01-08T02:16:00.162Z,6.20
2018-01-08T02:18:26.011Z,6.30
2018-01-08T02:20:52.604Z,6.30
2018-01-08T02:23:18.433Z,6.30
2018-01-08T02:25:44.277Z,6.30
2018-01-08T02:28:10.105Z,6.30
2018-01-08T02:30:35.950Z,6.20
2018-01-08T02:33:01.794Z,6.20
2018-01-08T02:35:27.679Z,6.20
2018-01-08T02:37:53.551Z,6.20
2018-01-08T02:40:19.384Z,6.20
2018-01-08T02:42:45.230Z,6.10
2018-01-08T02:45:11.062Z,6.10
2018-01-08T02:47:36.905Z,6.20
2018-01-08T02:50:02.732Z,6.20
2018-01-08T02:52:28.578Z,6.20
2018-01-08T02:54:54.631Z,6.20
2018-01-08T02:57:20.497Z,6.30
2018-01-08T02:59:46.329Z,6.30
2018-01-08T03:02:12.173Z,6.20
2018-01-08T03:04:38.006Z,6.20
2018-01-08T03:07:03.846Z,6.20
2018-01-08T03:09:29.726Z,6.20
2018-01-08T03:11:55.558Z,6.10
2018-01-08T03:14:22.145Z,6.30
2018-01-08T03:16:47.987Z,6.30
2018-01-08T03:19:13.814Z,6.30
2018-01-08T03:21:39.660Z,6.30
2018-01-08T03:24:05.766Z,6.20
2018-01-08T03:26:31.606Z,6.30
2018-01-08T03:28:57.473Z,6.30
2018-01-08T03:31:23.351Z,6.30
2018-01-08T03:33:49.182Z,6.20
2018-01-08T03:36:15.017Z,6.20
2018-01-08T03:38:40.854Z,6.20
2018-01-08T03:41:06.694Z,6.10
2018-01-08T03:43:32.587Z,6.10
2018-01-08T03:45:58.386Z,6.20
2018-01-08T03:48:24.225Z,6.20
2018-01-08T03:50:50.061Z,6.20
2018-01-08T03:53:15.885Z,6.20
2018-01-08T03:55:41.723Z,6.20
2018-01-08T03:58:08.307Z,6.20
2018-01-08T04:00:34.882Z,6.20
2018-01-08T04:03:00.734Z,6.20
2018-01-08T04:05:26.611Z,6.20
2018-01-08T04:07:53.209Z,6.20
2018-01-08T04:10:19.041Z,6.20
2018-01-08T04:12:44.877Z,6.20
2018-01-08T04:15:10.714Z,6.20
2018-01-08T04:17:36.554Z,6.20
2018-01-08T04:20:02.386Z,6.20
2018-01-08T04:22:28.225Z,6.20
2018-01-08T04:24:54.078Z,6.20
2018-01-08T04:27:19.909Z,6.20
2018-01-08T04:29:45.751Z,6.20
2018-01-08T04:32:12.338Z,6.20
2018-01-08T04:34:38.194Z,6.10
2018-01-08T04:37:04.026Z,6.20
2018-01-08T04:39:29.865Z,6.20
2018-01-08T04:41:55.835Z,6.20
2018-01-08T04:44:21.683Z,6.20
2018-01-08T04:46:47.517Z,6.20
2018-01-08T04:49:13.337Z,6.30
2018-01-08T04:51:39.914Z,6.10
2018-01-08T04:54:05.754Z,6.10
2018-01-08T04:56:31.590Z,6.20
2018-01-08T04:58:57.442Z,6.20
2018-01-08T05:01:23.895Z,6.10
2018-01-08T05:03:49.730Z,6.10
2018-01-08T05:06:16.306Z,6.20
2018-01-08T05:08:43.186Z,6.20
2018-01-08T05:11:09.326Z,6.20
2018-01-08T05:13:35.194Z,6.10
2018-01-08T05:16:01.027Z,6.10
2018-01-08T05:18:26.881Z,6.10
2018-01-08T05:20:52.769Z,6.20
2018-01-08T05:23:18.606Z,6.30
2018-01-08T05:25:44.438Z,6.20
2018-01-08T05:28:10.278Z,6.20
2018-01-08T05:30:36.114Z,6.20
2018-01-08T05:33:01.965Z,6.10
2018-01-08T05:35:27.845Z,6.10
2018-01-08T05:37:53.709Z,6.10
2018-01-08T05:40:19.542Z,6.20
2018-01-08T05:42:45.394Z,6.30
2018-01-08T05:45:11.230Z,6.20
2018-01-08T05:47:37.081Z,6.20
2018-01-08T05:50:03.647Z,6.10
2018-01-08T05:52:29.492Z,6.10
2018-01-08T05:54:55.345Z,6.20
2018-01-08T05:57:21.462Z,6.10
2018-01-08T05:59:47.291Z,6.10
2018-01-08T06:02:13.121Z,6.10
2018-01-08T06:04:39.001Z,6.10
2018-01-08T06:07:04.838Z,6.10
2018-01-08T06:09:30.688Z,6.00
2018-01-08T06:11:57.273Z,6.10
2018-01-08T06:14:23.270Z,6.10
2018-01-08T06:16:49.118Z,6.20
2018-01-08T06:19:15.698Z,6.20
2018-01-08T06:21:41.526Z,6.20
2018-01-08T06:24:07.369Z,6.20
2018-01-08T06:26:33.202Z,6.10
2018-01-08T06:28:59.038Z,6.10
2018-01-08T06:31:24.936Z,6.20
2018-01-08T06:33:50.783Z,6.10
2018-01-08T06:36:16.639Z,6.10
2018-01-08T06:38:42.484Z,6.10
2018-01-08T06:41:08.322Z,6.10
2018-01-08T06:43:34.154Z,6.10
2018-01-08T06:45:59.998Z,6.10
2018-01-08T06:48:26.638Z,6.00
2018-01-08T06:50:53.989Z,6.00
2018-01-08T06:53:19.826Z,6.00
2018-01-08T06:55:45.674Z,6.00
2018-01-08T06:58:11.506Z,6.00
2018-01-08T07:00:37.350Z,5.90
2018-01-08T07:03:03.925Z,6.00
2018-01-08T07:05:29.780Z,5.90
2018-01-08T07:07:55.668Z,5.90
2018-01-08T07:10:22.306Z,6.00
2018-01-08T07:12:48.138Z,6.00
2018-01-08T07:15:13.982Z,5.90
2018-01-08T07:17:40.570Z,6.00
2018-01-08T07:20:06.415Z,6.00
2018-01-08T07:22:32.285Z,6.00
2018-01-08T07:24:58.138Z,6.00
2018-01-08T07:27:24.034Z,6.00
2018-01-08T07:29:49.870Z,6.00
2018-01-08T07:32:15.710Z,5.90
2018-01-08T07:34:42.282Z,6.00
2018-01-08T07:37:08.877Z,6.00
2018-01-08T07:39:34.722Z,6.00
2018-01-08T07:42:00.573Z,5.90
2018-01-08T07:44:26.437Z,6.00
2018-01-08T07:46:52.306Z,6.10
2018-01-08T07:49:18.146Z,6.10
2018-01-08T07:51:43.986Z,6.00
2018-01-08T07:54:09.818Z,5.90
2018-01-08T07:56:35.666Z,5.80
2018-01-08T07:59:01.494Z,5.80
2018-01-08T08:01:27.388Z,5.80
2018-01-08T08:03:53.247Z,5.90
2018-01-08T08:06:19.122Z,6.00
2018-01-08T08:08:45.698Z,5.90
2018-01-08T08:11:11.542Z,5.90
2018-01-08T08:13:37.391Z,5.90
2018-01-08T08:16:03.226Z,5.90
2018-01-08T08:18:29.074Z,5.90
2018-01-08T08:20:54.931Z,5.90
2018-01-08T08:23:21.510Z,5.90
2018-01-08T08:25:47.634Z,5.90
2018-01-08T08:28:13.470Z,5.90
2018-01-08T08:30:39.304Z,5.90
2018-01-08T08:33:05.154Z,6.00
2018-01-08T08:35:30.986Z,6.00
2018-01-08T08:37:56.842Z,5.90
2018-01-08T08:40:22.700Z,5.90
2018-01-08T08:42:49.590Z,5.90
2018-01-08T08:45:15.426Z,5.90
2018-01-08T08:47:41.286Z,5.90
2018-01-08T08:50:07.110Z,5.90
2018-01-08T08:52:32.951Z,5.90
2018-01-08T08:54:58.837Z,5.90
2018-01-08T08:57:24.699Z,5.90
2018-01-08T08:59:50.537Z,5.90
2018-01-08T09:02:16.406Z,5.90
2018-01-08T09:04:42.229Z,5.80
2018-01-08T09:07:08.332Z,5.80
2018-01-08T09:09:34.158Z,5.90
2018-01-08T09:12:00.008Z,6.00
2018-01-08T09:14:25.867Z,6.10
2018-01-08T09:16:51.708Z,6.10
2018-01-08T09:19:18.286Z,6.30
2018-01-08T09:21:44.117Z,6.30
2018-01-08T09:24:09.954Z,6.30
2018-01-08T09:26:35.802Z,6.20
2018-01-08T09:29:01.643Z,6.20
2018-01-08T09:31:27.782Z,6.20
2018-01-08T09:33:53.662Z,6.20
2018-01-08T09:36:20.242Z,6.10
2018-01-08T09:38:46.082Z,6.10
2018-01-08T09:41:11.934Z,6.10
2018-01-08T09:43:37.770Z,6.10
2018-01-08T09:46:03.604Z,6.10
2018-01-08T09:48:29.446Z,6.20
2018-01-08T09:50:55.325Z,6.20
2018-01-08T09:53:21.879Z,6.30
2018-01-08T09:55:47.778Z,6.20
2018-01-08T09:58:13.579Z,6.30
2018-01-08T10:00:39.414Z,6.30
2018-01-08T10:03:11.423Z,6.30
2018-01-08T10:05:44.313Z,6.20
2018-01-08T10:08:16.637Z,6.20
2018-01-08T10:10:48.926Z,6.30
2018-01-08T10:13:20.850Z,6.30
2018-01-08T10:15:52.939Z,6.20
2018-01-08T10:18:24.781Z,6.10
2018-01-08T10:20:50.614Z,6.20
2018-01-08T10:23:16.468Z,6.30
2018-01-08T10:25:42.306Z,6.40
2018-01-08T10:28:08.142Z,6.40
2018-01-08T10:30:34.726Z,6.50
2018-01-08T10:33:00.575Z,6.50
2018-01-08T10:35:26.454Z,6.60
2018-01-08T10:37:52.289Z,6.60
2018-01-08T10:40:18.870Z,6.40
2018-01-08T10:42:50.948Z,6.30
2018-01-08T10:45:22.803Z,6.50
2018-01-08T10:47:55.425Z,6.50
2018-01-08T10:50:27.624Z,6.50
2018-01-08T10:52:56.463Z,6.50
2018-01-08T10:55:22.305Z,6.50
2018-01-08T10:57:48.874Z,6.50
2018-01-08T11:00:14.726Z,6.50
2018-01-08T11:02:46.775Z,6.50
2018-01-08T11:05:12.616Z,6.60
2018-01-08T11:07:38.455Z,6.60
2018-01-08T11:10:04.302Z,6.60
2018-01-08T11:12:30.132Z,6.60
2018-01-08T11:14:56.031Z,6.50
2018-01-08T11:17:22.697Z,6.40
2018-01-08T11:19:49.262Z,6.40
2018-01-08T11:22:15.093Z,6.40
2018-01-08T11:24:40.926Z,6.40
2018-01-08T11:27:06.760Z,6.40
2018-01-08T11:29:32.606Z,6.40
2018-01-08T11:31:58.466Z,6.50
2018-01-08T11:34:24.390Z,6.60
2018-01-08T11:36:50.244Z,6.60
2018-01-08T11:39:16.094Z,6.80
2018-01-08T11:41:42.686Z,6.70
2018-01-08T11:44:08.521Z,6.70
2018-01-08T11:46:34.373Z,6.80
2018-01-08T11:49:00.230Z,6.90
2018-01-08T11:51:26.855Z,6.80
2018-01-08T11:53:52.690Z,6.80
2018-01-08T11:56:18.534Z,6.90
2018-01-08T11:58:44.366Z,6.90
2018-01-08T12:01:10.216Z,6.70
2018-01-08T12:03:36.791Z,6.80
2018-01-08T12:06:02.639Z,6.80
2018-01-08T12:08:28.482Z,6.90
2018-01-08T12:10:54.601Z,6.90
2018-01-08T12:13:20.446Z,7.00
2018-01-08T12:15:46.306Z,7.00
2018-01-08T12:18:12.142Z,7.00
2018-01-08T12:20:37.977Z,7.00
2018-01-08T12:23:03.811Z,7.00
2018-01-08T12:25:29.662Z,7.00
2018-01-08T12:27:56.234Z,7.00
2018-01-08T12:30:22.092Z,7.00
2018-01-08T12:32:47.929Z,7.10
2018-01-08T12:35:13.764Z,7.10
2018-01-08T12:37:39.602Z,7.00
2018-01-08T12:40:05.436Z,6.90
2018-01-08T12:42:32.019Z,6.90
2018-01-08T12:44:58.602Z,7.00
2018-01-08T12:47:24.462Z,7.00
2018-01-08T12:49:50.307Z,6.90
2018-01-08T12:52:16.146Z,6.90
2018-01-08T12:54:41.982Z,6.90
2018-01-08T12:57:07.813Z,7.00
2018-01-08T12:59:33.647Z,7.00
2018-01-08T13:02:00.274Z,7.10
2018-01-08T13:04:26.126Z,7.20
2018-01-08T13:06:51.967Z,7.20
2018-01-08T13:09:18.542Z,7.20
2018-01-08T13:11:44.380Z,7.20
2018-01-08T13:14:10.205Z,7.20
2018-01-08T13:16:36.044Z,7.20
2018-01-08T13:19:01.882Z,7.10
2018-01-08T13:21:27.742Z,7.10
2018-01-08T13:23:53.586Z,7.20
2018-01-08T13:26:19.454Z,7.10
2018-01-08T13:28:46.022Z,7.10
2018-01-08T13:31:11.866Z,7.10
2018-01-08T13:33:37.703Z,7.20
2018-01-08T13:36:03.533Z,7.30
2018-01-08T13:38:29.374Z,7.30
2018-01-08T13:40:55.241Z,7.20
2018-01-08T13:43:21.834Z,7.20
2018-01-08T13:45:47.690Z,7.20
2018-01-08T13:48:13.533Z,7.20
2018-01-08T13:50:39.366Z,7.20
2018-01-08T13:53:05.195Z,7.30
2018-01-08T13:55:31.050Z,7.20
2018-01-08T13:57:56.934Z,7.20
2018-01-08T14:00:22.827Z,7.20
2018-01-08T14:02:48.681Z,7.20
2018-01-08T14:05:14.522Z,7.10
2018-01-08T14:07:40.418Z,7.00
2018-01-08T14:10:06.276Z,7.00
2018-01-08T14:12:32.874Z,7.10
2018-01-08T14:14:58.725Z,7.10
2018-01-08T14:17:24.625Z,7.10
2018-01-08T14:19:50.466Z,7.20
2018-01-08T14:22:16.301Z,7.20
2018-01-08T14:24:42.134Z,7.20
2018-01-08T14:27:07.966Z,7.30
2018-01-08T14:29:33.802Z,7.30
2018-01-08T14:31:59.653Z,7.20
2018-01-08T14:34:26.254Z,7.20
2018-01-08T14:36:52.093Z,7.10
2018-01-08T14:39:17.925Z,7.20
2018-01-08T14:41:43.770Z,7.30
2018-01-08T14:44:09.604Z,7.30
2018-01-08T14:46:35.437Z,7.40
2018-01-08T14:49:01.271Z,7.30
2018-01-08T14:51:27.169Z,7.30
2018-01-08T14:53:53.027Z,7.20
2018-01-08T14:56:18.861Z,7.20
2018-01-08T14:58:44.698Z,7.20
2018-01-08T15:01:10.542Z,7.30
2018-01-08T15:03:36.389Z,7.30
2018-01-08T15:06:02.230Z,7.30
2018-01-08T15:08:28.080Z,7.20
2018-01-08T15:10:54.691Z,7.20
2018-01-08T15:13:20.524Z,7.20
2018-01-08T15:15:46.363Z,7.20
2018-01-08T15:18:12.193Z,7.30
2018-01-08T15:20:38.019Z,7.20
2018-01-08T15:23:03.878Z,7.30
2018-01-08T15:25:30.498Z,7.20
2018-01-08T15:27:56.357Z,7.20
2018-01-08T15:30:22.954Z,7.10
2018-01-08T15:32:48.786Z,7.10
2018-01-08T15:35:14.618Z,7.20
2018-01-08T15:37:40.457Z,7.30
2018-01-08T15:40:06.286Z,7.30
2018-01-08T15:42:32.113Z,7.30
2018-01-08T15:44:57.946Z,7.30
2018-01-08T15:47:23.798Z,7.40
2018-01-08T15:49:49.630Z,7.30
2018-01-08T15:52:15.468Z,7.30
2018-01-08T15:54:41.303Z,7.20
2018-01-08T15:57:07.137Z,7.20
2018-01-08T15:59:32.965Z,7.20
2018-01-08T16:01:58.802Z,7.20
2018-01-08T16:04:24.646Z,7.20
2018-01-08T16:06:50.482Z,7.20
2018-01-08T16:09:16.309Z,7.10
2018-01-08T16:11:42.156Z,7.20
2018-01-08T16:14:08.727Z,7.20
2018-01-08T16:16:34.561Z,7.10
2018-01-08T16:19:00.414Z,7.10
2018-01-08T16:21:26.260Z,7.10
2018-01-08T16:23:52.109Z,7.10
2018-01-08T16:26:17.944Z,7.00
2018-01-08T16:28:43.773Z,7.10
2018-01-08T16:31:09.610Z,7.20
2018-01-08T16:33:36.170Z,7.20
2018-01-08T16:36:02.003Z,7.20
2018-01-08T16:38:27.887Z,7.20
2018-01-08T16:40:53.726Z,7.30
2018-01-08T16:43:19.594Z,7.30
2018-01-08T16:45:46.906Z,7.30
2018-01-08T16:48:12.733Z,7.30
2018-01-08T16:50:38.557Z,7.30
2018-01-08T16:53:04.390Z,7.30
2018-01-08T16:55:30.222Z,7.20
2018-01-08T16:57:56.062Z,7.20
2018-01-08T17:00:21.882Z,7.20
2018-01-08T17:02:47.721Z,7.20
2018-01-08T17:05:13.546Z,7.20
2018-01-08T17:07:39.374Z,7.20
2018-01-08T17:10:05.956Z,7.20
2018-01-08T17:12:31.797Z,7.20
2018-01-08T17:14:57.654Z,7.20
2018-01-08T17:17:23.515Z,7.20
2018-01-08T17:19:50.090Z,7.20
2018-01-08T17:22:15.930Z,7.20
2018-01-08T17:24:41.763Z,7.20
2018-01-08T17:27:07.602Z,7.20
2018-01-08T17:29:33.486Z,7.20
2018-01-08T17:32:00.051Z,7.30
2018-01-08T17:34:26.409Z,7.30
2018-01-08T17:36:52.279Z,7.30
2018-01-08T17:39:18.127Z,7.30
2018-01-08T17:41:43.962Z,7.20
2018-01-08T17:44:09.798Z,7.20
2018-01-08T17:46:35.625Z,7.10
2018-01-08T17:49:02.210Z,7.20
2018-01-08T17:51:28.050Z,7.20
2018-01-08T17:53:53.886Z,7.20
2018-01-08T17:56:19.718Z,7.20
2018-01-08T17:58:45.546Z,7.20
2018-01-08T18:01:11.380Z,7.20
2018-01-08T18:03:37.522Z,7.20
2018-01-08T18:06:03.346Z,7.20
2018-01-08T18:08:29.178Z,7.20
2018-01-08T18:10:55.030Z,7.20
2018-01-08T18:13:20.870Z,7.30
2018-01-08T18:15:46.698Z,7.20
2018-01-08T18:18:12.525Z,7.20
2018-01-08T18:20:38.387Z,7.10
2018-01-08T18:23:04.198Z,7.20
2018-01-08T18:25:30.041Z,7.20
2018-01-08T18:27:55.892Z,7.10
2018-01-08T18:30:22.479Z,7.20
2018-01-08T18:32:48.306Z,7.20
2018-01-08T18:35:14.145Z,7.20
2018-01-08T18:37:39.974Z,7.20
2018-01-08T18:40:05.824Z,7.20
2018-01-08T18:42:31.666Z,7.10
2018-01-08T18:44:57.542Z,7.10
2018-01-08T18:47:24.424Z,7.10
2018-01-08T18:49:50.431Z,7.10
2018-01-08T18:52:17.006Z,7.20
2018-01-08T18:54:42.845Z,7.10
2018-01-08T18:57:08.695Z,7.20
2018-01-08T18:59:34.570Z,7.20
2018-01-08T19:02:00.398Z,7.10
2018-01-08T19:04:26.229Z,7.10
2018-01-08T19:06:52.069Z,7.00
2018-01-08T19:09:17.901Z,7.10
2018-01-08T19:11:43.748Z,7.10
2018-01-08T19:14:10.405Z,7.20
2018-01-08T19:16:38.185Z,7.20
2018-01-08T19:19:04.119Z,7.20
2018-01-08T19:21:29.942Z,7.20
2018-01-08T19:23:56.514Z,7.20
2018-01-08T19:26:22.342Z,7.20
2018-01-08T19:28:48.174Z,7.10
2018-01-08T19:31:14.007Z,7.10
2018-01-08T19:33:39.859Z,7.10
2018-01-08T19:36:06.207Z,7.10
2018-01-08T19:38:32.301Z,7.00
2018-01-08T19:40:59.297Z,7.00
2018-01-08T19:43:25.156Z,7.00
2018-01-08T19:45:50.989Z,7.00
2018-01-08T19:48:17.004Z,7.00
2018-01-08T19:50:43.103Z,7.00
2018-01-08T19:53:09.233Z,7.00
2018-01-08T19:55:35.233Z,7.00
2018-01-08T19:58:01.089Z,7.10
2018-01-08T20:00:26.937Z,7.20
2018-01-08T20:02:53.943Z,7.10
2018-01-08T20:05:19.798Z,7.20
2018-01-08T20:07:45.643Z,7.20
2018-01-08T20:10:11.474Z,7.30
2018-01-08T20:12:37.317Z,7.40
2018-01-08T20:15:03.907Z,7.30
2018-01-08T20:17:29.741Z,7.30
2018-01-08T20:19:55.578Z,7.30
2018-01-08T20:22:21.485Z,7.30
2018-01-08T20:24:48.058Z,7.20
2018-01-08T20:27:13.889Z,7.20
2018-01-08T20:29:39.760Z,7.20
2018-01-08T20:32:05.602Z,7.10
2018-01-08T20:34:32.182Z,7.10
2018-01-08T20:36:58.790Z,7.20
2018-01-08T20:39:24.634Z,7.10
2018-01-08T20:41:50.487Z,7.20
2018-01-08T20:44:17.071Z,7.20
2018-01-08T20:46:42.898Z,7.10
2018-01-08T20:49:08.742Z,7.20
2018-01-08T20:51:34.570Z,7.20
2018-01-08T20:54:00.410Z,7.20
2018-01-08T20:56:26.261Z,7.20
2018-01-08T20:58:52.098Z,7.10
2018-01-08T21:01:17.926Z,7.20
2018-01-08T21:03:43.763Z,7.10
2018-01-08T21:06:09.603Z,7.10
2018-01-08T21:08:36.193Z,7.10
2018-01-08T21:11:02.039Z,7.10
2018-01-08T21:13:27.897Z,7.00
2018-01-08T21:15:53.744Z,7.00
2018-01-08T21:18:19.583Z,7.10
2018-01-08T21:20:46.154Z,7.20
2018-01-08T21:23:12.739Z,7.10
2018-01-08T21:25:38.566Z,7.10
2018-01-08T21:28:04.398Z,7.10
2018-01-08T21:30:30.234Z,7.10
2018-01-08T21:32:56.085Z,7.20
2018-01-08T21:35:21.923Z,7.20
2018-01-08T21:37:47.765Z,7.10
2018-01-08T21:40:13.609Z,7.10
2018-01-08T21:42:39.446Z,7.10
2018-01-08T21:45:06.027Z,7.00
2018-01-08T21:47:31.875Z,7.00
2018-01-08T21:49:57.756Z,7.00
2018-01-08T21:52:24.342Z,7.00
2018-01-08T21:54:50.178Z,7.00
2018-01-08T21:57:16.017Z,7.10
2018-01-08T21:59:41.854Z,7.00
2018-01-08T22:02:07.686Z,7.10
2018-01-08T22:04:33.528Z,7.10
2018-01-08T22:06:59.353Z,7.10
2018-01-08T22:09:25.261Z,7.10
2018-01-08T22:11:51.106Z,7.10
2018-01-08T22:14:16.946Z,7.10
2018-01-08T22:16:42.778Z,7.10
2018-01-08T22:19:08.606Z,7.00
2018-01-08T22:21:34.434Z,7.10
2018-01-08T22:24:00.284Z,7.00
2018-01-08T22:26:26.126Z,7.00
2018-01-08T22:28:51.985Z,7.10
2018-01-08T22:31:17.805Z,7.10
2018-01-08T22:33:43.638Z,7.10
2018-01-08T22:36:09.478Z,7.10
2018-01-08T22:38:35.305Z,7.10
2018-01-08T22:41:01.138Z,7.10
2018-01-08T22:43:26.968Z,7.10
2018-01-08T22:45:52.827Z,7.10
2018-01-08T22:48:19.402Z,7.10
2018-01-08T22:50:45.230Z,7.10
2018-01-08T22:53:11.058Z,7.10
2018-01-08T22:55:36.903Z,7.10
2018-01-08T22:58:02.742Z,7.10
2018-01-08T23:00:28.580Z,7.10
2018-01-08T23:02:54.419Z,7.10
2018-01-08T23:05:20.263Z,7.00
2018-01-08T23:07:46.097Z,7.10
2018-01-08T23:10:11.934Z,7.10
2018-01-08T23:12:39.303Z,7.10
2018-01-08T23:15:05.109Z,7.10
2018-01-08T23:17:30.939Z,7.10
2018-01-08T23:19:56.781Z,7.00
2018-01-08T23:22:22.610Z,7.10
2018-01-08T23:24:48.440Z,7.00
2018-01-08T23:27:14.281Z,7.00
2018-01-08T23:29:40.114Z,7.00
2018-01-08T23:34:20.422Z,7.00
2018-01-08T23:36:46.266Z,7.00
2018-01-08T23:39:12.089Z,7.00
2018-01-08T23:41:37.922Z,7.20
2018-01-08T23:44:04.498Z,7.10
2018-01-08T23:46:31.082Z,7.20
2018-01-08T23:48:56.937Z,7.20
2018-01-08T23:51:22.786Z,7.30
2018-01-08T23:53:48.618Z,7.20
2018-01-08T23:56:14.474Z,7.20
2018-01-08T23:58:41.042Z,7.10
